sensor_id;sensor_type;location;lat;lon;timestamp;P1;durP1;ratioP1;P2;durP2;ratioP2
69305;SDS011;56427;51.580;4.656;2023-05-20T00:00:48;12.17;;;4.13;;
69305;SDS011;56427;51.580;4.656;2023-05-20T00:03:14;10.00;;;4.17;;
69305;SDS011;56427;51.580;4.656;2023-05-20T00:05:39;10.48;;;3.92;;
69305;SDS011;56427;51.580;4.656;2023-05-20T00:08:04;12.83;;;4.57;;
69305;SDS011;56427;51.580;4.656;2023-05-20T00:10:33;9.20;;;4.35;;
69305;SDS011;56427;51.580;4.656;2023-05-20T00:12:58;11.43;;;4.17;;
69305;SDS011;56427;51.580;4.656;2023-05-20T00:15:23;8.20;;;3.70;;
69305;SDS011;56427;51.580;4.656;2023-05-20T00:17:49;12.80;;;3.80;;
69305;SDS011;56427;51.580;4.656;2023-05-20T00:20:15;9.95;;;3.63;;
69305;SDS011;56427;51.580;4.656;2023-05-20T00:22:40;11.27;;;3.77;;
69305;SDS011;56427;51.580;4.656;2023-05-20T00:25:05;11.20;;;3.90;;
69305;SDS011;56427;51.580;4.656;2023-05-20T00:27:31;7.10;;;3.78;;
69305;SDS011;56427;51.580;4.656;2023-05-20T00:29:56;11.13;;;4.77;;
69305;SDS011;56427;51.580;4.656;2023-05-20T00:32:21;6.20;;;3.60;;
69305;SDS011;56427;51.580;4.656;2023-05-20T00:34:54;10.67;;;4.17;;
69305;SDS011;56427;51.580;4.656;2023-05-20T00:37:20;9.47;;;4.50;;
69305;SDS011;56427;51.580;4.656;2023-05-20T00:39:45;12.13;;;4.23;;
69305;SDS011;56427;51.580;4.656;2023-05-20T00:42:10;7.57;;;4.07;;
69305;SDS011;56427;51.580;4.656;2023-05-20T00:44:35;16.17;;;3.90;;
69305;SDS011;56427;51.580;4.656;2023-05-20T00:47:01;11.40;;;4.10;;
69305;SDS011;56427;51.580;4.656;2023-05-20T00:49:26;10.90;;;4.10;;
69305;SDS011;56427;51.580;4.656;2023-05-20T00:51:51;12.47;;;4.10;;
69305;SDS011;56427;51.580;4.656;2023-05-20T00:54:16;10.07;;;4.17;;
69305;SDS011;56427;51.580;4.656;2023-05-20T00:56:42;12.63;;;4.37;;
69305;SDS011;56427;51.580;4.656;2023-05-20T00:59:08;11.15;;;4.43;;
69305;SDS011;56427;51.580;4.656;2023-05-20T01:01:33;13.63;;;4.60;;
69305;SDS011;56427;51.580;4.656;2023-05-20T01:03:58;10.70;;;4.30;;
69305;SDS011;56427;51.580;4.656;2023-05-20T01:06:24;10.13;;;4.50;;
69305;SDS011;56427;51.580;4.656;2023-05-20T01:08:49;9.73;;;4.23;;
69305;SDS011;56427;51.580;4.656;2023-05-20T01:11:16;9.03;;;4.47;;
69305;SDS011;56427;51.580;4.656;2023-05-20T01:13:47;8.23;;;4.30;;
69305;SDS011;56427;51.580;4.656;2023-05-20T01:16:13;13.85;;;5.45;;
69305;SDS011;56427;51.580;4.656;2023-05-20T01:18:41;10.18;;;4.53;;
69305;SDS011;56427;51.580;4.656;2023-05-20T01:21:07;11.40;;;4.47;;
69305;SDS011;56427;51.580;4.656;2023-05-20T01:23:37;12.10;;;4.70;;
69305;SDS011;56427;51.580;4.656;2023-05-20T01:26:06;11.27;;;4.28;;
69305;SDS011;56427;51.580;4.656;2023-05-20T01:28:32;9.10;;;5.03;;
69305;SDS011;56427;51.580;4.656;2023-05-20T01:30:57;12.20;;;4.43;;
69305;SDS011;56427;51.580;4.656;2023-05-20T01:33:24;9.75;;;4.72;;
69305;SDS011;56427;51.580;4.656;2023-05-20T01:35:50;11.13;;;4.60;;
69305;SDS011;56427;51.580;4.656;2023-05-20T01:38:15;9.50;;;4.33;;
69305;SDS011;56427;51.580;4.656;2023-05-20T01:40:41;9.82;;;4.60;;
69305;SDS011;56427;51.580;4.656;2023-05-20T01:43:07;10.88;;;4.70;;
69305;SDS011;56427;51.580;4.656;2023-05-20T01:45:33;9.83;;;4.43;;
69305;SDS011;56427;51.580;4.656;2023-05-20T01:47:58;9.50;;;4.53;;
69305;SDS011;56427;51.580;4.656;2023-05-20T01:50:23;11.30;;;4.50;;
69305;SDS011;56427;51.580;4.656;2023-05-20T01:52:49;9.93;;;4.13;;
69305;SDS011;56427;51.580;4.656;2023-05-20T01:55:14;11.47;;;4.63;;
69305;SDS011;56427;51.580;4.656;2023-05-20T01:57:39;14.70;;;4.93;;
69305;SDS011;56427;51.580;4.656;2023-05-20T02:00:04;12.47;;;4.70;;
69305;SDS011;56427;51.580;4.656;2023-05-20T02:02:30;9.13;;;4.20;;
69305;SDS011;56427;51.580;4.656;2023-05-20T02:04:55;10.67;;;4.80;;
69305;SDS011;56427;51.580;4.656;2023-05-20T02:07:21;11.20;;;4.57;;
69305;SDS011;56427;51.580;4.656;2023-05-20T02:09:46;14.67;;;4.80;;
69305;SDS011;56427;51.580;4.656;2023-05-20T02:12:12;8.83;;;4.90;;
69305;SDS011;56427;51.580;4.656;2023-05-20T02:14:43;9.73;;;4.80;;
69305;SDS011;56427;51.580;4.656;2023-05-20T02:17:09;9.32;;;4.70;;
69305;SDS011;56427;51.580;4.656;2023-05-20T02:19:34;10.97;;;4.60;;
69305;SDS011;56427;51.580;4.656;2023-05-20T02:22:00;11.43;;;4.57;;
69305;SDS011;56427;51.580;4.656;2023-05-20T02:24:25;11.20;;;4.63;;
69305;SDS011;56427;51.580;4.656;2023-05-20T02:26:50;8.70;;;4.17;;
69305;SDS011;56427;51.580;4.656;2023-05-20T02:29:17;12.73;;;4.57;;
69305;SDS011;56427;51.580;4.656;2023-05-20T02:31:43;11.23;;;4.43;;
69305;SDS011;56427;51.580;4.656;2023-05-20T02:34:09;15.40;;;5.33;;
69305;SDS011;56427;51.580;4.656;2023-05-20T02:36:34;13.70;;;4.83;;
69305;SDS011;56427;51.580;4.656;2023-05-20T02:39:00;14.85;;;6.40;;
69305;SDS011;56427;51.580;4.656;2023-05-20T02:41:25;11.77;;;5.10;;
69305;SDS011;56427;51.580;4.656;2023-05-20T02:43:50;11.20;;;5.37;;
69305;SDS011;56427;51.580;4.656;2023-05-20T02:46:15;12.47;;;5.03;;
69305;SDS011;56427;51.580;4.656;2023-05-20T02:48:43;13.75;;;5.32;;
69305;SDS011;56427;51.580;4.656;2023-05-20T02:51:08;11.10;;;4.77;;
69305;SDS011;56427;51.580;4.656;2023-05-20T02:53:33;10.43;;;5.20;;
69305;SDS011;56427;51.580;4.656;2023-05-20T02:55:58;10.57;;;5.13;;
69305;SDS011;56427;51.580;4.656;2023-05-20T02:58:24;13.23;;;5.30;;
69305;SDS011;56427;51.580;4.656;2023-05-20T03:00:50;10.32;;;5.10;;
69305;SDS011;56427;51.580;4.656;2023-05-20T03:03:16;11.67;;;5.37;;
69305;SDS011;56427;51.580;4.656;2023-05-20T03:05:41;9.93;;;5.57;;
69305;SDS011;56427;51.580;4.656;2023-05-20T03:08:10;14.90;;;5.15;;
69305;SDS011;56427;51.580;4.656;2023-05-20T03:10:36;12.20;;;5.18;;
69305;SDS011;56427;51.580;4.656;2023-05-20T03:13:03;8.55;;;5.18;;
69305;SDS011;56427;51.580;4.656;2023-05-20T03:15:28;11.77;;;5.80;;
69305;SDS011;56427;51.580;4.656;2023-05-20T03:17:53;11.60;;;5.47;;
69305;SDS011;56427;51.580;4.656;2023-05-20T03:20:19;16.17;;;5.40;;
69305;SDS011;56427;51.580;4.656;2023-05-20T03:22:44;13.37;;;5.50;;
69305;SDS011;56427;51.580;4.656;2023-05-20T03:25:09;14.37;;;6.33;;
69305;SDS011;56427;51.580;4.656;2023-05-20T03:27:35;9.07;;;5.20;;
69305;SDS011;56427;51.580;4.656;2023-05-20T03:30:02;12.65;;;5.40;;
69305;SDS011;56427;51.580;4.656;2023-05-20T03:32:27;11.50;;;4.83;;
69305;SDS011;56427;51.580;4.656;2023-05-20T03:34:52;11.33;;;5.50;;
69305;SDS011;56427;51.580;4.656;2023-05-20T03:37:18;11.45;;;5.22;;
69305;SDS011;56427;51.580;4.656;2023-05-20T03:39:43;11.30;;;5.80;;
69305;SDS011;56427;51.580;4.656;2023-05-20T03:42:09;12.17;;;5.50;;
69305;SDS011;56427;51.580;4.656;2023-05-20T03:44:34;16.73;;;5.90;;
69305;SDS011;56427;51.580;4.656;2023-05-20T03:46:59;11.55;;;5.40;;
69305;SDS011;56427;51.580;4.656;2023-05-20T03:49:25;12.20;;;5.83;;
69305;SDS011;56427;51.580;4.656;2023-05-20T03:51:50;9.37;;;5.80;;
69305;SDS011;56427;51.580;4.656;2023-05-20T03:54:15;12.53;;;5.67;;
69305;SDS011;56427;51.580;4.656;2023-05-20T03:56:41;9.90;;;5.60;;
69305;SDS011;56427;51.580;4.656;2023-05-20T03:59:06;13.43;;;5.27;;
69305;SDS011;56427;51.580;4.656;2023-05-20T04:01:31;16.77;;;6.17;;
69305;SDS011;56427;51.580;4.656;2023-05-20T04:03:57;12.43;;;6.05;;
69305;SDS011;56427;51.580;4.656;2023-05-20T04:06:23;10.27;;;5.77;;
69305;SDS011;56427;51.580;4.656;2023-05-20T04:08:48;13.50;;;5.23;;
69305;SDS011;56427;51.580;4.656;2023-05-20T04:11:14;10.05;;;5.20;;
69305;SDS011;56427;51.580;4.656;2023-05-20T04:13:39;15.37;;;5.70;;
69305;SDS011;56427;51.580;4.656;2023-05-20T04:16:04;15.03;;;5.70;;
69305;SDS011;56427;51.580;4.656;2023-05-20T04:18:30;10.93;;;5.87;;
69305;SDS011;56427;51.580;4.656;2023-05-20T04:20:55;12.15;;;5.57;;
69305;SDS011;56427;51.580;4.656;2023-05-20T04:23:21;11.00;;;5.40;;
69305;SDS011;56427;51.580;4.656;2023-05-20T04:25:46;13.67;;;6.20;;
69305;SDS011;56427;51.580;4.656;2023-05-20T04:28:12;13.65;;;5.45;;
69305;SDS011;56427;51.580;4.656;2023-05-20T04:30:40;10.45;;;5.03;;
69305;SDS011;56427;51.580;4.656;2023-05-20T04:33:06;10.30;;;5.50;;
69305;SDS011;56427;51.580;4.656;2023-05-20T04:35:32;11.98;;;5.38;;
69305;SDS011;56427;51.580;4.656;2023-05-20T04:37:58;11.43;;;5.28;;
69305;SDS011;56427;51.580;4.656;2023-05-20T04:40:25;16.13;;;5.45;;
69305;SDS011;56427;51.580;4.656;2023-05-20T04:42:51;10.77;;;5.40;;
69305;SDS011;56427;51.580;4.656;2023-05-20T04:45:16;10.90;;;5.10;;
69305;SDS011;56427;51.580;4.656;2023-05-20T04:47:42;10.10;;;4.93;;
69305;SDS011;56427;51.580;4.656;2023-05-20T04:50:09;16.40;;;6.10;;
69305;SDS011;56427;51.580;4.656;2023-05-20T04:52:40;11.10;;;5.50;;
69305;SDS011;56427;51.580;4.656;2023-05-20T04:55:10;10.95;;;5.22;;
69305;SDS011;56427;51.580;4.656;2023-05-20T04:57:36;11.80;;;5.53;;
69305;SDS011;56427;51.580;4.656;2023-05-20T05:00:04;11.82;;;5.40;;
69305;SDS011;56427;51.580;4.656;2023-05-20T05:02:31;13.77;;;5.57;;
69305;SDS011;56427;51.580;4.656;2023-05-20T05:04:57;9.73;;;5.45;;
69305;SDS011;56427;51.580;4.656;2023-05-20T05:07:22;13.03;;;5.50;;
69305;SDS011;56427;51.580;4.656;2023-05-20T05:09:47;11.17;;;5.00;;
69305;SDS011;56427;51.580;4.656;2023-05-20T05:12:12;14.07;;;5.57;;
69305;SDS011;56427;51.580;4.656;2023-05-20T05:14:38;9.87;;;5.23;;
69305;SDS011;56427;51.580;4.656;2023-05-20T05:17:03;11.17;;;5.20;;
69305;SDS011;56427;51.580;4.656;2023-05-20T05:19:28;9.67;;;4.97;;
69305;SDS011;56427;51.580;4.656;2023-05-20T05:21:53;8.27;;;4.73;;
69305;SDS011;56427;51.580;4.656;2023-05-20T05:24:19;12.07;;;4.83;;
69305;SDS011;56427;51.580;4.656;2023-05-20T05:26:44;9.47;;;4.53;;
69305;SDS011;56427;51.580;4.656;2023-05-20T05:29:09;11.50;;;4.93;;
69305;SDS011;56427;51.580;4.656;2023-05-20T05:31:35;10.87;;;4.97;;
69305;SDS011;56427;51.580;4.656;2023-05-20T05:34:00;9.73;;;4.83;;
69305;SDS011;56427;51.580;4.656;2023-05-20T05:36:25;10.13;;;4.80;;
69305;SDS011;56427;51.580;4.656;2023-05-20T05:38:50;14.03;;;4.67;;
69305;SDS011;56427;51.580;4.656;2023-05-20T05:41:16;11.47;;;4.97;;
69305;SDS011;56427;51.580;4.656;2023-05-20T05:43:41;9.47;;;4.67;;
69305;SDS011;56427;51.580;4.656;2023-05-20T05:46:06;9.13;;;4.70;;
69305;SDS011;56427;51.580;4.656;2023-05-20T05:48:32;12.53;;;5.40;;
69305;SDS011;56427;51.580;4.656;2023-05-20T05:50:57;9.10;;;4.73;;
69305;SDS011;56427;51.580;4.656;2023-05-20T05:53:22;8.87;;;4.33;;
69305;SDS011;56427;51.580;4.656;2023-05-20T05:55:48;11.50;;;5.23;;
69305;SDS011;56427;51.580;4.656;2023-05-20T05:58:13;8.03;;;4.13;;
69305;SDS011;56427;51.580;4.656;2023-05-20T06:00:38;8.70;;;4.00;;
69305;SDS011;56427;51.580;4.656;2023-05-20T06:03:03;10.43;;;4.50;;
69305;SDS011;56427;51.580;4.656;2023-05-20T06:05:29;8.73;;;4.00;;
69305;SDS011;56427;51.580;4.656;2023-05-20T06:07:55;7.30;;;3.87;;
69305;SDS011;56427;51.580;4.656;2023-05-20T06:10:20;9.57;;;4.77;;
69305;SDS011;56427;51.580;4.656;2023-05-20T06:12:45;9.87;;;4.40;;
69305;SDS011;56427;51.580;4.656;2023-05-20T06:15:10;7.63;;;4.13;;
69305;SDS011;56427;51.580;4.656;2023-05-20T06:17:36;13.70;;;4.53;;
69305;SDS011;56427;51.580;4.656;2023-05-20T06:20:01;12.07;;;5.03;;
69305;SDS011;56427;51.580;4.656;2023-05-20T06:22:26;7.53;;;4.10;;
69305;SDS011;56427;51.580;4.656;2023-05-20T06:24:52;12.67;;;4.57;;
69305;SDS011;56427;51.580;4.656;2023-05-20T06:27:18;8.38;;;4.28;;
69305;SDS011;56427;51.580;4.656;2023-05-20T06:29:43;9.57;;;3.90;;
69305;SDS011;56427;51.580;4.656;2023-05-20T06:32:08;7.33;;;3.80;;
69305;SDS011;56427;51.580;4.656;2023-05-20T06:34:33;9.27;;;4.10;;
69305;SDS011;56427;51.580;4.656;2023-05-20T06:36:58;5.60;;;3.90;;
69305;SDS011;56427;51.580;4.656;2023-05-20T06:39:24;8.27;;;3.37;;
69305;SDS011;56427;51.580;4.656;2023-05-20T06:41:49;9.97;;;4.80;;
69305;SDS011;56427;51.580;4.656;2023-05-20T06:44:16;8.43;;;3.53;;
69305;SDS011;56427;51.580;4.656;2023-05-20T06:46:41;11.37;;;4.00;;
69305;SDS011;56427;51.580;4.656;2023-05-20T06:49:06;11.57;;;4.20;;
69305;SDS011;56427;51.580;4.656;2023-05-20T06:51:32;8.87;;;4.33;;
69305;SDS011;56427;51.580;4.656;2023-05-20T06:53:57;9.07;;;3.83;;
69305;SDS011;56427;51.580;4.656;2023-05-20T06:56:22;10.50;;;3.70;;
69305;SDS011;56427;51.580;4.656;2023-05-20T06:58:47;9.10;;;3.80;;
69305;SDS011;56427;51.580;4.656;2023-05-20T07:01:12;7.70;;;3.97;;
69305;SDS011;56427;51.580;4.656;2023-05-20T07:03:38;7.93;;;4.07;;
69305;SDS011;56427;51.580;4.656;2023-05-20T07:06:03;8.33;;;4.17;;
69305;SDS011;56427;51.580;4.656;2023-05-20T07:08:28;11.87;;;4.13;;
69305;SDS011;56427;51.580;4.656;2023-05-20T07:10:56;7.37;;;4.27;;
69305;SDS011;56427;51.580;4.656;2023-05-20T07:13:22;8.05;;;4.05;;
69305;SDS011;56427;51.580;4.656;2023-05-20T07:15:48;7.55;;;3.97;;
69305;SDS011;56427;51.580;4.656;2023-05-20T07:18:13;6.77;;;4.07;;
69305;SDS011;56427;51.580;4.656;2023-05-20T07:20:38;8.37;;;4.43;;
69305;SDS011;56427;51.580;4.656;2023-05-20T07:23:04;8.23;;;4.30;;
69305;SDS011;56427;51.580;4.656;2023-05-20T07:25:29;8.47;;;4.00;;
69305;SDS011;56427;51.580;4.656;2023-05-20T07:27:54;6.30;;;3.93;;
69305;SDS011;56427;51.580;4.656;2023-05-20T07:30:19;7.10;;;4.30;;
69305;SDS011;56427;51.580;4.656;2023-05-20T07:32:45;7.20;;;4.23;;
69305;SDS011;56427;51.580;4.656;2023-05-20T07:35:10;7.53;;;4.47;;
69305;SDS011;56427;51.580;4.656;2023-05-20T07:37:35;5.57;;;4.00;;
69305;SDS011;56427;51.580;4.656;2023-05-20T07:40:00;10.70;;;4.30;;
69305;SDS011;56427;51.580;4.656;2023-05-20T07:42:26;9.03;;;3.73;;
69305;SDS011;56427;51.580;4.656;2023-05-20T07:44:51;8.70;;;4.27;;
69305;SDS011;56427;51.580;4.656;2023-05-20T07:47:16;8.53;;;4.20;;
69305;SDS011;56427;51.580;4.656;2023-05-20T07:49:41;9.83;;;4.03;;
69305;SDS011;56427;51.580;4.656;2023-05-20T07:52:08;9.38;;;4.25;;
69305;SDS011;56427;51.580;4.656;2023-05-20T07:54:33;12.77;;;4.23;;
69305;SDS011;56427;51.580;4.656;2023-05-20T07:56:58;7.17;;;3.67;;
69305;SDS011;56427;51.580;4.656;2023-05-20T07:59:25;8.68;;;4.25;;
69305;SDS011;56427;51.580;4.656;2023-05-20T08:01:50;9.20;;;4.07;;
69305;SDS011;56427;51.580;4.656;2023-05-20T08:04:15;7.67;;;4.23;;
69305;SDS011;56427;51.580;4.656;2023-05-20T08:06:41;7.90;;;3.90;;
69305;SDS011;56427;51.580;4.656;2023-05-20T08:09:08;6.32;;;3.53;;
69305;SDS011;56427;51.580;4.656;2023-05-20T08:11:34;7.23;;;3.50;;
69305;SDS011;56427;51.580;4.656;2023-05-20T08:13:59;8.00;;;3.88;;
69305;SDS011;56427;51.580;4.656;2023-05-20T08:16:24;9.23;;;3.57;;
69305;SDS011;56427;51.580;4.656;2023-05-20T08:18:49;7.43;;;3.70;;
69305;SDS011;56427;51.580;4.656;2023-05-20T08:21:15;9.03;;;3.63;;
69305;SDS011;56427;51.580;4.656;2023-05-20T08:23:40;6.77;;;3.20;;
69305;SDS011;56427;51.580;4.656;2023-05-20T08:26:05;6.70;;;3.20;;
69305;SDS011;56427;51.580;4.656;2023-05-20T08:28:31;8.98;;;3.20;;
69305;SDS011;56427;51.580;4.656;2023-05-20T08:30:56;5.40;;;3.10;;
69305;SDS011;56427;51.580;4.656;2023-05-20T08:33:22;6.50;;;2.80;;
69305;SDS011;56427;51.580;4.656;2023-05-20T08:35:47;7.83;;;3.23;;
69305;SDS011;56427;51.580;4.656;2023-05-20T08:38:12;6.00;;;2.70;;
69305;SDS011;56427;51.580;4.656;2023-05-20T08:40:38;6.97;;;3.00;;
69305;SDS011;56427;51.580;4.656;2023-05-20T08:43:03;5.47;;;2.90;;
69305;SDS011;56427;51.580;4.656;2023-05-20T08:45:30;5.80;;;3.20;;
69305;SDS011;56427;51.580;4.656;2023-05-20T08:47:56;5.35;;;3.13;;
69305;SDS011;56427;51.580;4.656;2023-05-20T08:50:21;7.13;;;2.60;;
69305;SDS011;56427;51.580;4.656;2023-05-20T08:52:47;7.10;;;2.93;;
69305;SDS011;56427;51.580;4.656;2023-05-20T08:55:58;5.43;;;2.27;;
69305;SDS011;56427;51.580;4.656;2023-05-20T08:58:03;6.25;;;2.70;;
69305;SDS011;56427;51.580;4.656;2023-05-20T09:00:29;7.47;;;2.67;;
69305;SDS011;56427;51.580;4.656;2023-05-20T09:02:54;4.37;;;2.30;;
69305;SDS011;56427;51.580;4.656;2023-05-20T09:05:20;14.07;;;3.05;;
69305;SDS011;56427;51.580;4.656;2023-05-20T09:07:46;4.35;;;2.40;;
69305;SDS011;56427;51.580;4.656;2023-05-20T09:10:11;6.30;;;2.17;;
69305;SDS011;56427;51.580;4.656;2023-05-20T09:12:37;6.03;;;2.63;;
69305;SDS011;56427;51.580;4.656;2023-05-20T09:15:02;7.10;;;2.47;;
69305;SDS011;56427;51.580;4.656;2023-05-20T09:17:28;8.47;;;2.67;;
69305;SDS011;56427;51.580;4.656;2023-05-20T09:19:53;4.77;;;2.47;;
69305;SDS011;56427;51.580;4.656;2023-05-20T09:22:25;5.03;;;2.57;;
69305;SDS011;56427;51.580;4.656;2023-05-20T09:24:51;3.60;;;2.25;;
69305;SDS011;56427;51.580;4.656;2023-05-20T09:27:16;8.57;;;2.60;;
69305;SDS011;56427;51.580;4.656;2023-05-20T09:29:41;4.43;;;2.17;;
69305;SDS011;56427;51.580;4.656;2023-05-20T09:32:08;10.70;;;2.60;;
69305;SDS011;56427;51.580;4.656;2023-05-20T09:34:33;7.88;;;2.15;;
69305;SDS011;56427;51.580;4.656;2023-05-20T09:36:59;6.03;;;2.20;;
69305;SDS011;56427;51.580;4.656;2023-05-20T09:39:24;11.57;;;2.37;;
69305;SDS011;56427;51.580;4.656;2023-05-20T09:41:55;6.40;;;2.10;;
69305;SDS011;56427;51.580;4.656;2023-05-20T09:44:21;7.30;;;2.35;;
69305;SDS011;56427;51.580;4.656;2023-05-20T09:46:47;10.60;;;2.17;;
69305;SDS011;56427;51.580;4.656;2023-05-20T09:49:13;4.50;;;1.93;;
69305;SDS011;56427;51.580;4.656;2023-05-20T09:51:39;6.03;;;1.80;;
69305;SDS011;56427;51.580;4.656;2023-05-20T09:54:04;5.10;;;2.10;;
69305;SDS011;56427;51.580;4.656;2023-05-20T09:56:32;4.43;;;2.15;;
69305;SDS011;56427;51.580;4.656;2023-05-20T09:58:58;7.40;;;2.30;;
69305;SDS011;56427;51.580;4.656;2023-05-20T10:01:23;4.93;;;2.00;;
69305;SDS011;56427;51.580;4.656;2023-05-20T10:03:49;6.00;;;1.90;;
69305;SDS011;56427;51.580;4.656;2023-05-20T10:11:53;3.88;;;2.10;;
69305;SDS011;56427;51.580;4.656;2023-05-20T10:14:28;5.07;;;1.90;;
69305;SDS011;56427;51.580;4.656;2023-05-20T10:17:06;5.18;;;1.80;;
69305;SDS011;56427;51.580;4.656;2023-05-20T10:19:34;5.05;;;1.85;;
69305;SDS011;56427;51.580;4.656;2023-05-20T10:22:01;3.53;;;1.60;;
69305;SDS011;56427;51.580;4.656;2023-05-20T10:26:56;4.22;;;1.98;;
69305;SDS011;56427;51.580;4.656;2023-05-20T10:29:22;5.03;;;2.03;;
69305;SDS011;56427;51.580;4.656;2023-05-20T10:31:48;7.22;;;1.98;;
69305;SDS011;56427;51.580;4.656;2023-05-20T10:34:14;4.85;;;2.17;;
69305;SDS011;56427;51.580;4.656;2023-05-20T10:36:43;6.47;;;1.77;;
69305;SDS011;56427;51.580;4.656;2023-05-20T10:39:13;2.80;;;1.60;;
69305;SDS011;56427;51.580;4.656;2023-05-20T10:41:39;5.93;;;1.80;;
69305;SDS011;56427;51.580;4.656;2023-05-20T10:44:05;5.90;;;1.80;;
69305;SDS011;56427;51.580;4.656;2023-05-20T10:46:31;6.03;;;2.05;;
69305;SDS011;56427;51.580;4.656;2023-05-20T10:48:56;3.92;;;1.85;;
69305;SDS011;56427;51.580;4.656;2023-05-20T10:51:22;13.10;;;2.20;;
69305;SDS011;56427;51.580;4.656;2023-05-20T10:53:50;7.83;;;2.37;;
69305;SDS011;56427;51.580;4.656;2023-05-20T10:56:16;9.60;;;2.50;;
69305;SDS011;56427;51.580;4.656;2023-05-20T10:58:52;4.72;;;2.00;;
69305;SDS011;56427;51.580;4.656;2023-05-20T11:01:17;6.30;;;2.20;;
69305;SDS011;56427;51.580;4.656;2023-05-20T11:03:46;5.67;;;2.03;;
69305;SDS011;56427;51.580;4.656;2023-05-20T11:06:13;6.55;;;2.70;;
69305;SDS011;56427;51.580;4.656;2023-05-20T11:08:38;9.48;;;1.90;;
69305;SDS011;56427;51.580;4.656;2023-05-20T11:11:04;5.70;;;2.37;;
69305;SDS011;56427;51.580;4.656;2023-05-20T11:13:29;8.17;;;2.43;;
69305;SDS011;56427;51.580;4.656;2023-05-20T11:15:55;7.93;;;2.30;;
69305;SDS011;56427;51.580;4.656;2023-05-20T11:18:20;4.78;;;2.20;;
69305;SDS011;56427;51.580;4.656;2023-05-20T11:20:45;12.43;;;2.10;;
69305;SDS011;56427;51.580;4.656;2023-05-20T11:23:12;5.67;;;2.20;;
69305;SDS011;56427;51.580;4.656;2023-05-20T11:25:38;4.10;;;1.77;;
69305;SDS011;56427;51.580;4.656;2023-05-20T11:28:03;5.87;;;2.20;;
69305;SDS011;56427;51.580;4.656;2023-05-20T11:30:28;4.30;;;1.90;;
69305;SDS011;56427;51.580;4.656;2023-05-20T11:32:57;5.68;;;2.15;;
69305;SDS011;56427;51.580;4.656;2023-05-20T11:35:23;4.40;;;2.17;;
69305;SDS011;56427;51.580;4.656;2023-05-20T11:38:01;4.25;;;2.38;;
69305;SDS011;56427;51.580;4.656;2023-05-20T11:40:27;4.35;;;2.08;;
69305;SDS011;56427;51.580;4.656;2023-05-20T11:42:56;9.07;;;2.00;;
69305;SDS011;56427;51.580;4.656;2023-05-20T11:45:22;6.75;;;1.80;;
69305;SDS011;56427;51.580;4.656;2023-05-20T11:48:00;4.20;;;1.70;;
69305;SDS011;56427;51.580;4.656;2023-05-20T11:50:25;5.43;;;1.70;;
69305;SDS011;56427;51.580;4.656;2023-05-20T11:52:56;5.10;;;1.87;;
69305;SDS011;56427;51.580;4.656;2023-05-20T11:55:21;4.10;;;1.90;;
69305;SDS011;56427;51.580;4.656;2023-05-20T11:57:46;9.97;;;1.90;;
69305;SDS011;56427;51.580;4.656;2023-05-20T12:00:12;5.17;;;2.00;;
69305;SDS011;56427;51.580;4.656;2023-05-20T12:02:37;3.00;;;1.70;;
69305;SDS011;56427;51.580;4.656;2023-05-20T12:05:02;8.97;;;1.83;;
69305;SDS011;56427;51.580;4.656;2023-05-20T12:07:28;4.40;;;2.00;;
69305;SDS011;56427;51.580;4.656;2023-05-20T12:09:53;3.70;;;1.87;;
69305;SDS011;56427;51.580;4.656;2023-05-20T12:12:18;7.03;;;2.17;;
69305;SDS011;56427;51.580;4.656;2023-05-20T12:14:44;6.72;;;2.20;;
69305;SDS011;56427;51.580;4.656;2023-05-20T12:17:09;6.00;;;2.20;;
69305;SDS011;56427;51.580;4.656;2023-05-20T12:19:34;4.90;;;1.70;;
69305;SDS011;56427;51.580;4.656;2023-05-20T12:22:00;5.63;;;2.20;;
69305;SDS011;56427;51.580;4.656;2023-05-20T12:24:26;6.00;;;2.10;;
69305;SDS011;56427;51.580;4.656;2023-05-20T12:26:51;5.60;;;2.43;;
69305;SDS011;56427;51.580;4.656;2023-05-20T12:29:16;3.40;;;2.03;;
69305;SDS011;56427;51.580;4.656;2023-05-20T12:31:42;4.87;;;2.50;;
69305;SDS011;56427;51.580;4.656;2023-05-20T12:34:07;7.57;;;2.20;;
69305;SDS011;56427;51.580;4.656;2023-05-20T12:36:32;6.47;;;2.43;;
69305;SDS011;56427;51.580;4.656;2023-05-20T12:38:57;5.73;;;2.30;;
69305;SDS011;56427;51.580;4.656;2023-05-20T12:41:23;3.80;;;2.30;;
69305;SDS011;56427;51.580;4.656;2023-05-20T12:43:48;8.20;;;2.30;;
69305;SDS011;56427;51.580;4.656;2023-05-20T12:46:13;6.37;;;2.40;;
69305;SDS011;56427;51.580;4.656;2023-05-20T12:48:38;3.77;;;2.17;;
69305;SDS011;56427;51.580;4.656;2023-05-20T12:51:04;5.23;;;2.60;;
69305;SDS011;56427;51.580;4.656;2023-05-20T12:53:29;3.40;;;2.10;;
69305;SDS011;56427;51.580;4.656;2023-05-20T12:55:55;3.77;;;2.07;;
69305;SDS011;56427;51.580;4.656;2023-05-20T12:58:20;5.80;;;2.40;;
69305;SDS011;56427;51.580;4.656;2023-05-20T13:00:45;6.97;;;2.80;;
69305;SDS011;56427;51.580;4.656;2023-05-20T13:03:10;7.17;;;2.63;;
69305;SDS011;56427;51.580;4.656;2023-05-20T13:05:36;6.93;;;2.30;;
69305;SDS011;56427;51.580;4.656;2023-05-20T13:08:01;4.77;;;2.10;;
69305;SDS011;56427;51.580;4.656;2023-05-20T13:10:26;5.90;;;2.50;;
69305;SDS011;56427;51.580;4.656;2023-05-20T13:12:52;5.53;;;2.20;;
69305;SDS011;56427;51.580;4.656;2023-05-20T13:15:17;5.65;;;2.33;;
69305;SDS011;56427;51.580;4.656;2023-05-20T13:17:42;4.87;;;2.40;;
69305;SDS011;56427;51.580;4.656;2023-05-20T13:20:08;7.90;;;2.93;;
69305;SDS011;56427;51.580;4.656;2023-05-20T13:22:33;6.00;;;2.40;;
69305;SDS011;56427;51.580;4.656;2023-05-20T13:24:59;3.97;;;2.50;;
69305;SDS011;56427;51.580;4.656;2023-05-20T13:27:24;3.47;;;2.05;;
69305;SDS011;56427;51.580;4.656;2023-05-20T13:29:49;4.37;;;2.63;;
69305;SDS011;56427;51.580;4.656;2023-05-20T13:32:14;5.90;;;2.60;;
69305;SDS011;56427;51.580;4.656;2023-05-20T13:34:40;4.23;;;2.10;;
69305;SDS011;56427;51.580;4.656;2023-05-20T13:37:05;4.23;;;2.30;;
69305;SDS011;56427;51.580;4.656;2023-05-20T13:39:30;7.33;;;2.83;;
69305;SDS011;56427;51.580;4.656;2023-05-20T13:41:56;4.65;;;2.40;;
69305;SDS011;56427;51.580;4.656;2023-05-20T13:44:22;6.37;;;2.57;;
69305;SDS011;56427;51.580;4.656;2023-05-20T13:46:47;4.70;;;2.53;;
69305;SDS011;56427;51.580;4.656;2023-05-20T13:49:12;6.83;;;2.53;;
69305;SDS011;56427;51.580;4.656;2023-05-20T13:51:38;7.40;;;2.20;;
69305;SDS011;56427;51.580;4.656;2023-05-20T13:54:03;5.77;;;2.53;;
69305;SDS011;56427;51.580;4.656;2023-05-20T13:56:28;7.47;;;3.00;;
69305;SDS011;56427;51.580;4.656;2023-05-20T13:58:53;4.90;;;2.50;;
69305;SDS011;56427;51.580;4.656;2023-05-20T14:01:19;5.63;;;2.03;;
69305;SDS011;56427;51.580;4.656;2023-05-20T14:03:44;7.37;;;2.10;;
69305;SDS011;56427;51.580;4.656;2023-05-20T14:06:09;3.93;;;2.40;;
69305;SDS011;56427;51.580;4.656;2023-05-20T14:08:34;6.47;;;2.20;;
69305;SDS011;56427;51.580;4.656;2023-05-20T14:11:00;3.53;;;1.73;;
69305;SDS011;56427;51.580;4.656;2023-05-20T14:13:25;5.30;;;2.20;;
69305;SDS011;56427;51.580;4.656;2023-05-20T14:15:51;6.07;;;2.10;;
69305;SDS011;56427;51.580;4.656;2023-05-20T14:18:16;4.80;;;2.20;;
69305;SDS011;56427;51.580;4.656;2023-05-20T14:20:42;4.57;;;2.38;;
69305;SDS011;56427;51.580;4.656;2023-05-20T14:23:07;3.70;;;1.90;;
69305;SDS011;56427;51.580;4.656;2023-05-20T14:25:33;4.33;;;2.00;;
69305;SDS011;56427;51.580;4.656;2023-05-20T14:27:58;4.50;;;2.07;;
69305;SDS011;56427;51.580;4.656;2023-05-20T14:30:23;3.80;;;2.20;;
69305;SDS011;56427;51.580;4.656;2023-05-20T14:32:49;5.47;;;2.00;;
69305;SDS011;56427;51.580;4.656;2023-05-20T14:35:14;4.00;;;2.20;;
69305;SDS011;56427;51.580;4.656;2023-05-20T14:37:40;6.03;;;2.30;;
69305;SDS011;56427;51.580;4.656;2023-05-20T14:40:06;3.60;;;2.00;;
69305;SDS011;56427;51.580;4.656;2023-05-20T14:42:31;6.47;;;2.20;;